sensor_id;sensor_type;location;lat;lon;timestamp;P1;durP1;ratioP1;P2;durP2;ratioP2
61635;SDS011;59438;45.014;39.006;2023-04-03T00:01:22;4.13;;;2.75;;
61635;SDS011;59438;45.014;39.006;2023-04-03T00:03:48;7.93;;;2.38;;
61635;SDS011;59438;45.014;39.006;2023-04-03T00:06:14;3.72;;;2.35;;
61635;SDS011;59438;45.014;39.006;2023-04-03T00:08:41;6.47;;;2.28;;
61635;SDS011;59438;45.014;39.006;2023-04-03T00:11:09;5.65;;;2.67;;
61635;SDS011;59438;45.014;39.006;2023-04-03T00:13:35;4.82;;;2.60;;
61635;SDS011;59438;45.014;39.006;2023-04-03T00:16:03;3.78;;;2.40;;
61635;SDS011;59438;45.014;39.006;2023-04-03T00:18:30;5.43;;;2.40;;
61635;SDS011;59438;45.014;39.006;2023-04-03T00:20:57;5.35;;;2.20;;
61635;SDS011;59438;45.014;39.006;2023-04-03T00:23:23;3.72;;;2.22;;
61635;SDS011;59438;45.014;39.006;2023-04-03T00:25:51;6.35;;;2.42;;
61635;SDS011;59438;45.014;39.006;2023-04-03T00:28:19;4.88;;;2.13;;
61635;SDS011;59438;45.014;39.006;2023-04-03T00:30:46;5.25;;;2.28;;
61635;SDS011;59438;45.014;39.006;2023-04-03T00:33:14;3.65;;;1.98;;
61635;SDS011;59438;45.014;39.006;2023-04-03T00:35:40;3.58;;;2.13;;
61635;SDS011;59438;45.014;39.006;2023-04-03T00:38:07;5.55;;;2.30;;
61635;SDS011;59438;45.014;39.006;2023-04-03T00:40:34;4.15;;;2.30;;
61635;SDS011;59438;45.014;39.006;2023-04-03T00:43:01;4.00;;;1.85;;
61635;SDS011;59438;45.014;39.006;2023-04-03T00:45:36;3.35;;;1.90;;
61635;SDS011;59438;45.014;39.006;2023-04-03T00:48:05;5.45;;;2.10;;
61635;SDS011;59438;45.014;39.006;2023-04-03T00:50:37;4.88;;;1.88;;
61635;SDS011;59438;45.014;39.006;2023-04-03T00:53:06;2.75;;;1.80;;
61635;SDS011;59438;45.014;39.006;2023-04-03T00:55:37;4.43;;;1.98;;
61635;SDS011;59438;45.014;39.006;2023-04-03T00:58:04;6.10;;;2.10;;
61635;SDS011;59438;45.014;39.006;2023-04-03T01:00:32;5.00;;;1.98;;
61635;SDS011;59438;45.014;39.006;2023-04-03T01:03:01;3.53;;;2.00;;
61635;SDS011;59438;45.014;39.006;2023-04-03T01:05:27;2.80;;;1.90;;
61635;SDS011;59438;45.014;39.006;2023-04-03T01:07:53;5.50;;;2.05;;
61635;SDS011;59438;45.014;39.006;2023-04-03T01:10:20;4.63;;;3.10;;
61635;SDS011;59438;45.014;39.006;2023-04-03T01:12:48;4.07;;;2.35;;
61635;SDS011;59438;45.014;39.006;2023-04-03T01:15:16;4.07;;;2.08;;
61635;SDS011;59438;45.014;39.006;2023-04-03T01:17:45;3.78;;;2.15;;
61635;SDS011;59438;45.014;39.006;2023-04-03T01:20:23;4.28;;;2.10;;
61635;SDS011;59438;45.014;39.006;2023-04-03T01:23:12;6.00;;;2.50;;
61635;SDS011;59438;45.014;39.006;2023-04-03T01:25:58;7.38;;;3.38;;
61635;SDS011;59438;45.014;39.006;2023-04-03T01:28:25;7.28;;;3.20;;
61635;SDS011;59438;45.014;39.006;2023-04-03T01:30:56;5.50;;;3.10;;
61635;SDS011;59438;45.014;39.006;2023-04-03T01:33:29;7.10;;;3.70;;
61635;SDS011;59438;45.014;39.006;2023-04-03T01:35:56;10.50;;;4.72;;
61635;SDS011;59438;45.014;39.006;2023-04-03T01:38:22;6.05;;;3.13;;
61635;SDS011;59438;45.014;39.006;2023-04-03T01:40:49;4.95;;;2.50;;
61635;SDS011;59438;45.014;39.006;2023-04-03T01:43:15;5.38;;;2.53;;
61635;SDS011;59438;45.014;39.006;2023-04-03T01:45:41;5.05;;;2.20;;
61635;SDS011;59438;45.014;39.006;2023-04-03T01:48:08;1.98;;;1.77;;
61635;SDS011;59438;45.014;39.006;2023-04-03T01:50:36;5.00;;;2.22;;
61635;SDS011;59438;45.014;39.006;2023-04-03T01:53:04;3.88;;;1.83;;
61635;SDS011;59438;45.014;39.006;2023-04-03T01:55:31;6.05;;;2.03;;
61635;SDS011;59438;45.014;39.006;2023-04-03T01:57:57;4.22;;;2.00;;
61635;SDS011;59438;45.014;39.006;2023-04-03T02:00:23;7.07;;;2.20;;
61635;SDS011;59438;45.014;39.006;2023-04-03T02:02:49;3.53;;;1.83;;
61635;SDS011;59438;45.014;39.006;2023-04-03T02:05:16;5.80;;;1.90;;
61635;SDS011;59438;45.014;39.006;2023-04-03T02:07:44;4.22;;;2.00;;
61635;SDS011;59438;45.014;39.006;2023-04-03T02:10:10;4.80;;;1.67;;
61635;SDS011;59438;45.014;39.006;2023-04-03T02:12:36;4.13;;;1.80;;
61635;SDS011;59438;45.014;39.006;2023-04-03T02:15:03;3.63;;;1.90;;
61635;SDS011;59438;45.014;39.006;2023-04-03T02:17:30;4.55;;;2.00;;
61635;SDS011;59438;45.014;39.006;2023-04-03T02:19:56;4.47;;;1.70;;
61635;SDS011;59438;45.014;39.006;2023-04-03T02:22:23;4.55;;;2.05;;
61635;SDS011;59438;45.014;39.006;2023-04-03T02:24:51;4.82;;;1.90;;
61635;SDS011;59438;45.014;39.006;2023-04-03T02:27:17;2.38;;;1.60;;
61635;SDS011;59438;45.014;39.006;2023-04-03T02:29:43;3.75;;;1.80;;
61635;SDS011;59438;45.014;39.006;2023-04-03T02:32:10;3.03;;;1.67;;
61635;SDS011;59438;45.014;39.006;2023-04-03T02:34:36;3.15;;;1.52;;
61635;SDS011;59438;45.014;39.006;2023-04-03T02:37:02;5.78;;;1.80;;
61635;SDS011;59438;45.014;39.006;2023-04-03T02:39:29;5.22;;;1.80;;
61635;SDS011;59438;45.014;39.006;2023-04-03T02:41:57;6.18;;;1.92;;
61635;SDS011;59438;45.014;39.006;2023-04-03T02:44:23;3.17;;;1.77;;
61635;SDS011;59438;45.014;39.006;2023-04-03T02:46:49;3.47;;;1.80;;
61635;SDS011;59438;45.014;39.006;2023-04-03T02:49:16;7.22;;;2.08;;
61635;SDS011;59438;45.014;39.006;2023-04-03T02:51:42;3.88;;;1.90;;
61635;SDS011;59438;45.014;39.006;2023-04-03T02:54:09;4.00;;;2.00;;
61635;SDS011;59438;45.014;39.006;2023-04-03T02:56:35;5.53;;;2.05;;
61635;SDS011;59438;45.014;39.006;2023-04-03T02:59:03;3.60;;;2.10;;
61635;SDS011;59438;45.014;39.006;2023-04-03T03:01:29;5.47;;;1.77;;
61635;SDS011;59438;45.014;39.006;2023-04-03T03:03:56;4.57;;;2.20;;
61635;SDS011;59438;45.014;39.006;2023-04-03T03:06:23;4.32;;;2.22;;
61635;SDS011;59438;45.014;39.006;2023-04-03T03:08:49;4.47;;;2.30;;
61635;SDS011;59438;45.014;39.006;2023-04-03T03:11:15;5.55;;;2.58;;
61635;SDS011;59438;45.014;39.006;2023-04-03T03:13:42;5.97;;;2.30;;
61635;SDS011;59438;45.014;39.006;2023-04-03T03:16:09;5.22;;;2.42;;
61635;SDS011;59438;45.014;39.006;2023-04-03T03:18:36;5.65;;;2.67;;
61635;SDS011;59438;45.014;39.006;2023-04-03T03:21:02;3.95;;;2.20;;
61635;SDS011;59438;45.014;39.006;2023-04-03T03:23:29;4.65;;;2.40;;
61635;SDS011;59438;45.014;39.006;2023-04-03T03:25:57;6.03;;;2.30;;
61635;SDS011;59438;45.014;39.006;2023-04-03T03:28:24;4.97;;;2.20;;
61635;SDS011;59438;45.014;39.006;2023-04-03T03:30:51;3.92;;;2.30;;
61635;SDS011;59438;45.014;39.006;2023-04-03T03:33:19;8.10;;;2.50;;
61635;SDS011;59438;45.014;39.006;2023-04-03T03:35:46;7.65;;;2.40;;
61635;SDS011;59438;45.014;39.006;2023-04-03T03:38:12;5.78;;;2.42;;
61635;SDS011;59438;45.014;39.006;2023-04-03T03:40:38;4.00;;;2.30;;
61635;SDS011;59438;45.014;39.006;2023-04-03T03:43:05;5.60;;;2.83;;
61635;SDS011;59438;45.014;39.006;2023-04-03T03:45:31;6.25;;;2.55;;
61635;SDS011;59438;45.014;39.006;2023-04-03T03:47:57;6.93;;;2.40;;
61635;SDS011;59438;45.014;39.006;2023-04-03T03:50:25;4.93;;;2.50;;
61635;SDS011;59438;45.014;39.006;2023-04-03T03:52:52;5.68;;;2.80;;
61635;SDS011;59438;45.014;39.006;2023-04-03T03:55:18;4.35;;;2.20;;
61635;SDS011;59438;45.014;39.006;2023-04-03T03:57:44;2.75;;;1.98;;
61635;SDS011;59438;45.014;39.006;2023-04-03T04:00:11;6.65;;;2.30;;
61635;SDS011;59438;45.014;39.006;2023-04-03T04:02:38;4.25;;;2.45;;
61635;SDS011;59438;45.014;39.006;2023-04-03T04:05:05;6.13;;;2.40;;
61635;SDS011;59438;45.014;39.006;2023-04-03T04:07:33;6.05;;;2.50;;
61635;SDS011;59438;45.014;39.006;2023-04-03T04:09:59;4.38;;;2.45;;
61635;SDS011;59438;45.014;39.006;2023-04-03T04:12:26;6.32;;;2.85;;
61635;SDS011;59438;45.014;39.006;2023-04-03T04:14:52;4.80;;;2.20;;
61635;SDS011;59438;45.014;39.006;2023-04-03T04:17:18;4.57;;;2.30;;
61635;SDS011;59438;45.014;39.006;2023-04-03T04:19:45;5.75;;;2.58;;
61635;SDS011;59438;45.014;39.006;2023-04-03T04:22:11;5.15;;;2.50;;
61635;SDS011;59438;45.014;39.006;2023-04-03T04:24:39;5.68;;;2.60;;
61635;SDS011;59438;45.014;39.006;2023-04-03T04:27:05;2.85;;;2.30;;
61635;SDS011;59438;45.014;39.006;2023-04-03T04:29:31;5.15;;;2.47;;
61635;SDS011;59438;45.014;39.006;2023-04-03T04:31:58;7.75;;;2.30;;
61635;SDS011;59438;45.014;39.006;2023-04-03T04:34:24;5.38;;;2.50;;
61635;SDS011;59438;45.014;39.006;2023-04-03T04:36:50;3.95;;;2.78;;
61635;SDS011;59438;45.014;39.006;2023-04-03T04:39:17;4.38;;;2.60;;
61635;SDS011;59438;45.014;39.006;2023-04-03T04:41:45;5.50;;;2.53;;
61635;SDS011;59438;45.014;39.006;2023-04-03T04:44:11;4.22;;;2.08;;
61635;SDS011;59438;45.014;39.006;2023-04-03T04:46:37;5.20;;;2.38;;
61635;SDS011;59438;45.014;39.006;2023-04-03T04:49:04;5.07;;;2.40;;
61635;SDS011;59438;45.014;39.006;2023-04-03T04:51:30;3.65;;;2.47;;
61635;SDS011;59438;45.014;39.006;2023-04-03T04:53:56;4.03;;;2.65;;
61635;SDS011;59438;45.014;39.006;2023-04-03T04:56:23;5.03;;;3.00;;
61635;SDS011;59438;45.014;39.006;2023-04-03T04:58:50;13.27;;;5.78;;
61635;SDS011;59438;45.014;39.006;2023-04-03T05:01:17;32.70;;;14.10;;
61635;SDS011;59438;45.014;39.006;2023-04-03T05:03:43;36.85;;;13.38;;
61635;SDS011;59438;45.014;39.006;2023-04-03T05:06:10;37.95;;;14.55;;
61635;SDS011;59438;45.014;39.006;2023-04-03T05:08:36;14.15;;;7.45;;
61635;SDS011;59438;45.014;39.006;2023-04-03T05:11:03;9.18;;;5.18;;
61635;SDS011;59438;45.014;39.006;2023-04-03T05:13:29;6.40;;;3.10;;
61635;SDS011;59438;45.014;39.006;2023-04-03T05:15:57;6.38;;;4.00;;
61635;SDS011;59438;45.014;39.006;2023-04-03T05:18:23;6.20;;;3.63;;
61635;SDS011;59438;45.014;39.006;2023-04-03T05:20:49;5.00;;;3.47;;
61635;SDS011;59438;45.014;39.006;2023-04-03T05:23:16;6.95;;;3.40;;
61635;SDS011;59438;45.014;39.006;2023-04-03T05:25:42;6.22;;;3.30;;
61635;SDS011;59438;45.014;39.006;2023-04-03T05:28:09;6.75;;;3.55;;
61635;SDS011;59438;45.014;39.006;2023-04-03T05:30:35;7.10;;;4.10;;
61635;SDS011;59438;45.014;39.006;2023-04-03T05:33:03;10.73;;;4.10;;
61635;SDS011;59438;45.014;39.006;2023-04-03T05:35:29;7.50;;;4.05;;
61635;SDS011;59438;45.014;39.006;2023-04-03T05:37:56;9.27;;;5.07;;
61635;SDS011;59438;45.014;39.006;2023-04-03T05:40:22;11.02;;;6.10;;
61635;SDS011;59438;45.014;39.006;2023-04-03T05:42:48;11.52;;;5.65;;
61635;SDS011;59438;45.014;39.006;2023-04-03T05:45:15;9.48;;;4.00;;
61635;SDS011;59438;45.014;39.006;2023-04-03T05:47:41;10.90;;;4.30;;
61635;SDS011;59438;45.014;39.006;2023-04-03T05:50:09;16.25;;;6.07;;
61635;SDS011;59438;45.014;39.006;2023-04-03T05:52:36;13.00;;;8.13;;
61635;SDS011;59438;45.014;39.006;2023-04-03T05:55:06;18.98;;;10.98;;
61635;SDS011;59438;45.014;39.006;2023-04-03T05:57:32;32.83;;;21.77;;
61635;SDS011;59438;45.014;39.006;2023-04-03T05:59:59;38.50;;;21.40;;
61635;SDS011;59438;45.014;39.006;2023-04-03T06:02:25;18.45;;;9.30;;
61635;SDS011;59438;45.014;39.006;2023-04-03T06:04:52;9.90;;;6.25;;
61635;SDS011;59438;45.014;39.006;2023-04-03T06:07:20;8.07;;;4.60;;
61635;SDS011;59438;45.014;39.006;2023-04-03T06:09:49;8.95;;;3.60;;
61635;SDS011;59438;45.014;39.006;2023-04-03T06:12:16;5.63;;;2.90;;
61635;SDS011;59438;45.014;39.006;2023-04-03T06:14:43;6.50;;;3.28;;
61635;SDS011;59438;45.014;39.006;2023-04-03T06:17:09;10.05;;;4.10;;
61635;SDS011;59438;45.014;39.006;2023-04-03T06:19:36;20.83;;;16.13;;
61635;SDS011;59438;45.014;39.006;2023-04-03T06:22:02;23.05;;;20.15;;
61635;SDS011;59438;45.014;39.006;2023-04-03T06:24:30;40.55;;;33.13;;
61635;SDS011;59438;45.014;39.006;2023-04-03T06:26:57;109.65;;;65.65;;
61635;SDS011;59438;45.014;39.006;2023-04-03T06:29:24;55.90;;;29.02;;
61635;SDS011;59438;45.014;39.006;2023-04-03T06:31:50;12.18;;;6.97;;
61635;SDS011;59438;45.014;39.006;2023-04-03T06:34:17;10.25;;;5.15;;
61635;SDS011;59438;45.014;39.006;2023-04-03T06:36:43;5.80;;;3.60;;
61635;SDS011;59438;45.014;39.006;2023-04-03T06:39:11;7.25;;;3.20;;
61635;SDS011;59438;45.014;39.006;2023-04-03T06:41:41;4.15;;;3.25;;
61635;SDS011;59438;45.014;39.006;2023-04-03T06:44:07;6.25;;;2.95;;
61635;SDS011;59438;45.014;39.006;2023-04-03T06:46:34;5.93;;;2.80;;
61635;SDS011;59438;45.014;39.006;2023-04-03T06:49:00;4.13;;;2.65;;
61635;SDS011;59438;45.014;39.006;2023-04-03T06:51:27;4.50;;;2.80;;
61635;SDS011;59438;45.014;39.006;2023-04-03T06:53:55;6.90;;;3.95;;
61635;SDS011;59438;45.014;39.006;2023-04-03T06:56:22;4.38;;;3.00;;
61635;SDS011;59438;45.014;39.006;2023-04-03T06:58:50;4.60;;;3.00;;
61635;SDS011;59438;45.014;39.006;2023-04-03T07:01:17;3.63;;;2.45;;
61635;SDS011;59438;45.014;39.006;2023-04-03T07:03:44;4.57;;;2.60;;
61635;SDS011;59438;45.014;39.006;2023-04-03T07:06:11;5.20;;;3.25;;
61635;SDS011;59438;45.014;39.006;2023-04-03T07:08:38;5.78;;;3.15;;
61635;SDS011;59438;45.014;39.006;2023-04-03T07:11:05;7.65;;;4.07;;
61635;SDS011;59438;45.014;39.006;2023-04-03T07:13:32;8.35;;;4.40;;
61635;SDS011;59438;45.014;39.006;2023-04-03T07:16:00;6.25;;;4.28;;
61635;SDS011;59438;45.014;39.006;2023-04-03T07:18:26;8.75;;;4.93;;
61635;SDS011;59438;45.014;39.006;2023-04-03T07:20:53;8.02;;;4.28;;
61635;SDS011;59438;45.014;39.006;2023-04-03T07:23:19;13.68;;;7.20;;
61635;SDS011;59438;45.014;39.006;2023-04-03T07:25:46;12.43;;;6.82;;
61635;SDS011;59438;45.014;39.006;2023-04-03T07:28:14;11.20;;;7.10;;
61635;SDS011;59438;45.014;39.006;2023-04-03T07:30:44;10.23;;;6.85;;
61635;SDS011;59438;45.014;39.006;2023-04-03T07:33:13;9.93;;;6.13;;
61635;SDS011;59438;45.014;39.006;2023-04-03T07:35:43;9.60;;;6.03;;
61635;SDS011;59438;45.014;39.006;2023-04-03T07:38:10;10.93;;;5.60;;
61635;SDS011;59438;45.014;39.006;2023-04-03T07:40:36;7.32;;;5.32;;
61635;SDS011;59438;45.014;39.006;2023-04-03T07:43:03;11.38;;;5.78;;
61635;SDS011;59438;45.014;39.006;2023-04-03T07:45:30;8.05;;;4.28;;
61635;SDS011;59438;45.014;39.006;2023-04-03T07:47:57;6.30;;;4.07;;
61635;SDS011;59438;45.014;39.006;2023-04-03T07:50:25;7.10;;;3.38;;
61635;SDS011;59438;45.014;39.006;2023-04-03T07:52:51;6.47;;;4.32;;
61635;SDS011;59438;45.014;39.006;2023-04-03T07:55:17;13.68;;;6.28;;
61635;SDS011;59438;45.014;39.006;2023-04-03T07:57:44;7.88;;;5.28;;
61635;SDS011;59438;45.014;39.006;2023-04-03T08:00:10;7.07;;;4.10;;
61635;SDS011;59438;45.014;39.006;2023-04-03T08:02:38;8.18;;;4.28;;
61635;SDS011;59438;45.014;39.006;2023-04-03T08:05:04;6.38;;;4.03;;
61635;SDS011;59438;45.014;39.006;2023-04-03T08:07:33;9.93;;;5.50;;
61635;SDS011;59438;45.014;39.006;2023-04-03T08:09:59;7.10;;;4.57;;
61635;SDS011;59438;45.014;39.006;2023-04-03T08:12:25;6.57;;;4.35;;
61635;SDS011;59438;45.014;39.006;2023-04-03T08:14:52;7.80;;;4.15;;
61635;SDS011;59438;45.014;39.006;2023-04-03T08:17:18;9.45;;;3.58;;
61635;SDS011;59438;45.014;39.006;2023-04-03T08:19:44;4.32;;;2.90;;
61635;SDS011;59438;45.014;39.006;2023-04-03T08:22:11;6.13;;;2.80;;
61635;SDS011;59438;45.014;39.006;2023-04-03T08:24:38;5.47;;;3.33;;
61635;SDS011;59438;45.014;39.006;2023-04-03T08:27:05;6.65;;;3.40;;
61635;SDS011;59438;45.014;39.006;2023-04-03T08:29:31;5.93;;;3.42;;
61635;SDS011;59438;45.014;39.006;2023-04-03T08:31:57;4.65;;;3.13;;
61635;SDS011;59438;45.014;39.006;2023-04-03T08:34:24;5.00;;;2.90;;
61635;SDS011;59438;45.014;39.006;2023-04-03T08:36:50;4.93;;;2.97;;
61635;SDS011;59438;45.014;39.006;2023-04-03T08:39:19;10.55;;;4.97;;
61635;SDS011;59438;45.014;39.006;2023-04-03T08:41:46;14.98;;;6.93;;
61635;SDS011;59438;45.014;39.006;2023-04-03T08:44:14;16.23;;;9.07;;
61635;SDS011;59438;45.014;39.006;2023-04-03T08:46:52;10.68;;;7.13;;
61635;SDS011;59438;45.014;39.006;2023-04-03T08:49:26;10.80;;;7.22;;
61635;SDS011;59438;45.014;39.006;2023-04-03T08:51:56;8.85;;;5.72;;
61635;SDS011;59438;45.014;39.006;2023-04-03T08:54:28;17.25;;;13.18;;
61635;SDS011;59438;45.014;39.006;2023-04-03T08:57:00;9.60;;;6.85;;
61635;SDS011;59438;45.014;39.006;2023-04-03T08:59:29;8.40;;;6.70;;
61635;SDS011;59438;45.014;39.006;2023-04-03T09:02:00;6.95;;;4.20;;
61635;SDS011;59438;45.014;39.006;2023-04-03T09:04:30;8.75;;;4.00;;
61635;SDS011;59438;45.014;39.006;2023-04-03T09:06:58;6.57;;;5.00;;
61635;SDS011;59438;45.014;39.006;2023-04-03T09:09:30;6.50;;;4.25;;
61635;SDS011;59438;45.014;39.006;2023-04-03T09:12:03;4.10;;;2.90;;
61635;SDS011;59438;45.014;39.006;2023-04-03T09:14:38;7.93;;;2.83;;
61635;SDS011;59438;45.014;39.006;2023-04-03T09:17:10;7.72;;;4.30;;
61635;SDS011;59438;45.014;39.006;2023-04-03T09:19:41;3.17;;;2.22;;
61635;SDS011;59438;45.014;39.006;2023-04-03T09:22:16;4.45;;;2.63;;
61635;SDS011;59438;45.014;39.006;2023-04-03T09:24:44;8.43;;;5.28;;
61635;SDS011;59438;45.014;39.006;2023-04-03T09:27:14;8.52;;;4.82;;
61635;SDS011;59438;45.014;39.006;2023-04-03T09:29:41;6.75;;;4.20;;
61635;SDS011;59438;45.014;39.006;2023-04-03T09:32:17;8.63;;;5.00;;
61635;SDS011;59438;45.014;39.006;2023-04-03T09:34:47;5.53;;;3.60;;
61635;SDS011;59438;45.014;39.006;2023-04-03T09:37:32;5.68;;;3.78;;
61635;SDS011;59438;45.014;39.006;2023-04-03T09:40:00;4.50;;;3.33;;
61635;SDS011;59438;45.014;39.006;2023-04-03T09:42:28;4.53;;;2.95;;
61635;SDS011;59438;45.014;39.006;2023-04-03T09:44:56;3.28;;;2.45;;
61635;SDS011;59438;45.014;39.006;2023-04-03T09:47:25;4.57;;;2.40;;
61635;SDS011;59438;45.014;39.006;2023-04-03T09:49:56;2.85;;;2.30;;
61635;SDS011;59438;45.014;39.006;2023-04-03T09:52:44;5.65;;;2.50;;
61635;SDS011;59438;45.014;39.006;2023-04-03T09:55:13;4.18;;;2.20;;
61635;SDS011;59438;45.014;39.006;2023-04-03T09:57:43;4.03;;;2.50;;
61635;SDS011;59438;45.014;39.006;2023-04-03T10:00:19;4.50;;;2.30;;
61635;SDS011;59438;45.014;39.006;2023-04-03T10:02:49;5.13;;;2.85;;
61635;SDS011;59438;45.014;39.006;2023-04-03T10:05:28;3.00;;;2.70;;
61635;SDS011;59438;45.014;39.006;2023-04-03T10:10:34;2.72;;;1.90;;
61635;SDS011;59438;45.014;39.006;2023-04-03T10:13:05;4.28;;;2.40;;
61635;SDS011;59438;45.014;39.006;2023-04-03T10:15:34;3.00;;;2.40;;
61635;SDS011;59438;45.014;39.006;2023-04-03T10:18:06;7.55;;;4.07;;
61635;SDS011;59438;45.014;39.006;2023-04-03T10:20:52;4.95;;;2.53;;
61635;SDS011;59438;45.014;39.006;2023-04-03T10:23:21;4.43;;;2.53;;
61635;SDS011;59438;45.014;39.006;2023-04-03T10:25:55;4.68;;;2.42;;
61635;SDS011;59438;45.014;39.006;2023-04-03T10:31:06;2.90;;;2.20;;
61635;SDS011;59438;45.014;39.006;2023-04-03T10:33:41;5.60;;;2.30;;
61635;SDS011;59438;45.014;39.006;2023-04-03T10:36:21;2.92;;;2.17;;
61635;SDS011;59438;45.014;39.006;2023-04-03T10:38:57;5.22;;;2.35;;
61635;SDS011;59438;45.014;39.006;2023-04-03T10:41:33;2.47;;;1.88;;
61635;SDS011;59438;45.014;39.006;2023-04-03T10:44:12;4.35;;;1.90;;
61635;SDS011;59438;45.014;39.006;2023-04-03T10:46:47;4.30;;;2.22;;
61635;SDS011;59438;45.014;39.006;2023-04-03T10:49:22;6.35;;;2.15;;
61635;SDS011;59438;45.014;39.006;2023-04-03T10:52:00;1.95;;;1.60;;
61635;SDS011;59438;45.014;39.006;2023-04-03T10:54:32;3.17;;;1.70;;
61635;SDS011;59438;45.014;39.006;2023-04-03T10:57:04;2.13;;;1.75;;
61635;SDS011;59438;45.014;39.006;2023-04-03T10:59:35;4.18;;;2.50;;
61635;SDS011;59438;45.014;39.006;2023-04-03T11:02:06;4.25;;;2.10;;
61635;SDS011;59438;45.014;39.006;2023-04-03T11:04:37;3.03;;;1.98;;
61635;SDS011;59438;45.014;39.006;2023-04-03T11:07:08;3.58;;;2.10;;
61635;SDS011;59438;45.014;39.006;2023-04-03T11:09:41;4.75;;;2.35;;
61635;SDS011;59438;45.014;39.006;2023-04-03T11:12:11;3.90;;;1.88;;
61635;SDS011;59438;45.014;39.006;2023-04-03T11:14:44;6.07;;;2.25;;
61635;SDS011;59438;45.014;39.006;2023-04-03T11:17:20;3.78;;;2.20;;
61635;SDS011;59438;45.014;39.006;2023-04-03T11:19:56;7.40;;;2.85;;
61635;SDS011;59438;45.014;39.006;2023-04-03T11:22:28;224.63;;;40.17;;
61635;SDS011;59438;45.014;39.006;2023-04-03T11:24:58;3.33;;;1.70;;
61635;SDS011;59438;45.014;39.006;2023-04-03T11:27:30;4.80;;;1.88;;
61635;SDS011;59438;45.014;39.006;2023-04-03T11:30:07;2.63;;;1.92;;
61635;SDS011;59438;45.014;39.006;2023-04-03T11:32:54;11.80;;;3.17;;
61635;SDS011;59438;45.014;39.006;2023-04-03T11:35:34;15.02;;;4.03;;
61635;SDS011;59438;45.014;39.006;2023-04-03T11:38:02;218.73;;;39.10;;
61635;SDS011;59438;45.014;39.006;2023-04-03T11:40:32;7.95;;;4.10;;
61635;SDS011;59438;45.014;39.006;2023-04-03T11:43:04;444.60;;;88.38;;
61635;SDS011;59438;45.014;39.006;2023-04-03T11:45:51;16.17;;;5.05;;
61635;SDS011;59438;45.014;39.006;2023-04-03T12:12:40;143.93;;;24.27;;
61635;SDS011;59438;45.014;39.006;2023-04-03T12:15:19;145.00;;;21.80;;
61635;SDS011;59438;45.014;39.006;2023-04-03T12:17:50;209.02;;;37.13;;
61635;SDS011;59438;45.014;39.006;2023-04-03T12:23:28;3.25;;;1.80;;
61635;SDS011;59438;45.014;39.006;2023-04-03T12:26:01;40.38;;;8.02;;
61635;SDS011;59438;45.014;39.006;2023-04-03T12:28:43;134.32;;;21.73;;
61635;SDS011;59438;45.014;39.006;2023-04-03T12:31:11;8.55;;;1.80;;
61635;SDS011;59438;45.014;39.006;2023-04-03T12:36:40;146.88;;;19.48;;
61635;SDS011;59438;45.014;39.006;2023-04-03T12:42:25;19.08;;;3.10;;
61635;SDS011;59438;45.014;39.006;2023-04-03T12:45:10;128.48;;;19.92;;
61635;SDS011;59438;45.014;39.006;2023-04-03T12:47:43;169.18;;;31.75;;
61635;SDS011;59438;45.014;39.006;2023-04-03T12:50:20;126.95;;;25.15;;
61635;SDS011;59438;45.014;39.006;2023-04-03T12:52:51;214.95;;;35.88;;
61635;SDS011;59438;45.014;39.006;2023-04-03T12:55:24;4.60;;;2.63;;
61635;SDS011;59438;45.014;39.006;2023-04-03T12:57:51;19.10;;;2.60;;
61635;SDS011;59438;45.014;39.006;2023-04-03T13:00:18;480.48;;;20.55;;
61635;SDS011;59438;45.014;39.006;2023-04-03T13:02:53;61.05;;;5.57;;
61635;SDS011;59438;45.014;39.006;2023-04-03T13:05:21;32.80;;;5.80;;
61635;SDS011;59438;45.014;39.006;2023-04-03T13:07:49;224.52;;;35.25;;
61635;SDS011;59438;45.014;39.006;2023-04-03T13:10:18;96.25;;;16.63;;
61635;SDS011;59438;45.014;39.006;2023-04-03T13:12:46;6.90;;;2.92;;
61635;SDS011;59438;45.014;39.006;2023-04-03T13:15:17;82.10;;;12.48;;
61635;SDS011;59438;45.014;39.006;2023-04-03T13:20:13;7.85;;;2.35;;
61635;SDS011;59438;45.014;39.006;2023-04-03T13:22:47;11.18;;;2.10;;
61635;SDS011;59438;45.014;39.006;2023-04-03T13:25:18;89.20;;;14.98;;
61635;SDS011;59438;45.014;39.006;2023-04-03T13:27:47;273.95;;;39.97;;
61635;SDS011;59438;45.014;39.006;2023-04-03T13:30:18;134.60;;;22.23;;
61635;SDS011;59438;45.014;39.006;2023-04-03T13:32:47;80.95;;;12.82;;
61635;SDS011;59438;45.014;39.006;2023-04-03T13:35:33;19.15;;;4.45;;
61635;SDS011;59438;45.014;39.006;2023-04-03T13:38:07;79.38;;;14.20;;
61635;SDS011;59438;45.014;39.006;2023-04-03T13:40:48;2.30;;;1.80;;
61635;SDS011;59438;45.014;39.006;2023-04-03T13:43:20;118.30;;;67.03;;
61635;SDS011;59438;45.014;39.006;2023-04-03T13:45:53;35.35;;;5.63;;
61635;SDS011;59438;45.014;39.006;2023-04-03T13:48:23;148.52;;;20.88;;
61635;SDS011;59438;45.014;39.006;2023-04-03T13:50:52;166.32;;;55.80;;
61635;SDS011;59438;45.014;39.006;2023-04-03T13:53:22;101.10;;;17.42;;
61635;SDS011;59438;45.014;39.006;2023-04-03T13:55:53;116.57;;;19.58;;
61635;SDS011;59438;45.014;39.006;2023-04-03T13:58:23;178.02;;;39.30;;
61635;SDS011;59438;45.014;39.006;2023-04-03T14:00:51;43.15;;;15.93;;
61635;SDS011;59438;45.014;39.006;2023-04-03T14:03:20;164.05;;;22.45;;
61635;SDS011;59438;45.014;39.006;2023-04-03T14:05:49;238.82;;;22.40;;
61635;SDS011;59438;45.014;39.006;2023-04-03T14:08:15;174.55;;;27.38;;
61635;SDS011;59438;45.014;39.006;2023-04-03T14:10:44;34.80;;;7.32;;
61635;SDS011;59438;45.014;39.006;2023-04-03T14:13:11;134.00;;;23.20;;
61635;SDS011;59438;45.014;39.006;2023-04-03T14:15:39;195.68;;;68.28;;
61635;SDS011;59438;45.014;39.006;2023-04-03T14:18:09;26.10;;;6.70;;
61635;SDS011;59438;45.014;39.006;2023-04-03T14:20:37;278.90;;;40.27;;
61635;SDS011;59438;45.014;39.006;2023-04-03T14:23:03;111.65;;;18.55;;
61635;SDS011;59438;45.014;39.006;2023-04-03T14:25:30;444.00;;;66.97;;
61635;SDS011;59438;45.014;39.006;2023-04-03T14:27:58;558.00;;;88.18;;
61635;SDS011;59438;45.014;39.006;2023-04-03T14:30:27;466.13;;;81.80;;
61635;SDS011;59438;45.014;39.006;2023-04-03T14:32:55;650.50;;;110.68;;
61635;SDS011;59438;45.014;39.006;2023-04-03T14:35:21;355.88;;;51.72;;
61635;SDS011;59438;45.014;39.006;2023-04-03T14:37:48;397.67;;;61.65;;
61635;SDS011;59438;45.014;39.006;2023-04-03T14:40:17;21.73;;;4.25;;
61635;SDS011;59438;45.014;39.006;2023-04-03T14:42:46;249.27;;;21.23;;
61635;SDS011;59438;45.014;39.006;2023-04-03T14:45:14;252.90;;;33.40;;
61635;SDS011;59438;45.014;39.006;2023-04-03T14:47:42;63.90;;;11.98;;
61635;SDS011;59438;45.014;39.006;2023-04-03T14:50:12;196.80;;;32.72;;
61635;SDS011;59438;45.014;39.006;2023-04-03T14:52:41;186.88;;;34.03;;
61635;SDS011;59438;45.014;39.006;2023-04-03T14:55:08;138.32;;;24.23;;
61635;SDS011;59438;45.014;39.006;2023-04-03T14:57:38;113.10;;;21.52;;
61635;SDS011;59438;45.014;39.006;2023-04-03T15:00:06;85.38;;;11.43;;
61635;SDS011;59438;45.014;39.006;2023-04-03T15:02:38;111.68;;;85.80;;
61635;SDS011;59438;45.014;39.006;2023-04-03T15:05:07;7.90;;;3.78;;
61635;SDS011;59438;45.014;39.006;2023-04-03T15:07:35;4.65;;;2.97;;
61635;SDS011;59438;45.014;39.006;2023-04-03T15:10:09;7.38;;;2.60;;
61635;SDS011;59438;45.014;39.006;2023-04-03T15:12:41;5.13;;;2.38;;
61635;SDS011;59438;45.014;39.006;2023-04-03T15:15:09;9.35;;;3.22;;
61635;SDS011;59438;45.014;39.006;2023-04-03T15:17:36;6.13;;;2.58;;